CheckWX is a tool to help pilots better visualize weather data.  It is not intended as a substitute for an official pre-flight weather briefing.

11:00:48 UTC

KOGA METAR
Searle Field Airport
Ogallala, Nebraska, USA
Current

26 mins ago

KOGA 041035Z AUTO 13005KT 10SM OVC080 M01/M04 A3012 RMK AO2 T10151042
Observed
Apr-4 @ 10:35 UTC
Wind
  • 130° at 5 KTS
Visibility
Flight Rules
VFR
Cloud Levels
  • Overcast at 8,000' AGL
Temperature
-2°C / 28°F
Dewpoint
-4°C / 25°F
Humidity
86%
Altimeter
30.12" Hg
Pressure
1020.02 hPa
Previous

46 mins ago

KOGA 041015Z AUTO 13004KT 10SM OVC080 M01/M04 A3013 RMK AO2 T10151044
Observed
Apr-4 @ 10:15 UTC
Wind
  • 130° at 4 KTS
Visibility
Flight Rules
VFR
Cloud Levels
  • Overcast at 8,000' AGL
Temperature
-2°C / 28°F
Dewpoint
-4°C / 25°F
Humidity
86%
Altimeter
30.13" Hg
Pressure
1020.32 hPa
Previous

1 hour ago

KOGA 040955Z AUTO 14007KT 10SM OVC090 M01/M04 A3013 RMK AO2 T10151045
Observed
Apr-4 @ 09:55 UTC
Wind
  • 140° at 7 KTS
Visibility
Flight Rules
VFR
Cloud Levels
  • Overcast at 9,000' AGL
Temperature
-2°C / 28°F
Dewpoint
-4°C / 25°F
Humidity
86%
Altimeter
30.13" Hg
Pressure
1020.32 hPa